createdAt,value
2018-12-02T00:00:08.627Z,99.99
2018-12-02T00:01:29.634Z,99.99
2018-12-02T00:02:08.643Z,99.99
2018-12-02T00:03:08.686Z,99.99
2018-12-02T00:04:29.706Z,99.99
2018-12-02T00:05:08.721Z,99.99
2018-12-02T00:06:29.870Z,99.99
2018-12-02T00:07:08.730Z,99.99
2018-12-02T00:08:08.746Z,99.99
2018-12-02T00:09:29.832Z,99.99
2018-12-02T00:10:08.798Z,99.99
2018-12-02T00:11:29.822Z,99.99
2018-12-02T00:12:08.829Z,99.99
2018-12-02T00:13:08.878Z,99.99
2018-12-02T00:14:29.881Z,99.99
2018-12-02T00:15:08.925Z,99.99
2018-12-02T00:16:29.937Z,99.99
2018-12-02T00:17:08.945Z,99.99
2018-12-02T00:18:08.971Z,99.99
2018-12-02T00:19:29.972Z,99.99
2018-12-02T00:20:09.005Z,99.99
2018-12-02T00:21:30.032Z,99.99
2018-12-02T00:22:09.024Z,99.99
2018-12-02T00:23:09.063Z,99.99
2018-12-02T00:24:30.075Z,99.99
2018-12-02T00:25:09.099Z,99.99
2018-12-02T00:26:30.135Z,99.99
2018-12-02T00:27:09.121Z,99.99
2018-12-02T00:28:09.153Z,99.99
2018-12-02T00:29:30.250Z,99.99
2018-12-02T00:30:09.192Z,99.99
2018-12-02T00:31:30.229Z,99.99
2018-12-02T00:32:09.210Z,99.99
2018-12-02T00:33:09.256Z,99.99
2018-12-02T00:34:30.308Z,99.99
2018-12-02T00:35:09.287Z,99.99
2018-12-02T00:36:30.310Z,99.99
2018-12-02T00:37:09.320Z,99.99
2018-12-02T00:38:09.357Z,99.99
2018-12-02T00:39:30.354Z,99.99
2018-12-02T00:40:10.239Z,99.99
2018-12-02T00:41:30.408Z,99.99
2018-12-02T00:42:09.427Z,99.99
2018-12-02T00:43:09.442Z,99.99
2018-12-02T00:44:30.487Z,99.99
2018-12-02T00:45:09.474Z,99.99
2018-12-02T00:46:30.500Z,99.99
2018-12-02T00:47:09.493Z,99.99
2018-12-02T00:48:09.718Z,99.99
2018-12-02T00:49:30.597Z,99.99
2018-12-02T00:50:09.557Z,99.99
2018-12-02T00:51:30.603Z,99.99
2018-12-02T00:52:09.653Z,99.99
2018-12-02T00:53:09.635Z,99.99
2018-12-02T00:54:30.655Z,99.99
2018-12-02T00:55:09.698Z,99.99
2018-12-02T00:56:30.719Z,99.99
2018-12-02T00:57:09.743Z,99.99
2018-12-02T00:58:09.723Z,99.99
2018-12-02T00:59:30.751Z,99.99
2018-12-02T01:00:09.791Z,99.99
2018-12-02T01:01:30.838Z,99.99
2018-12-02T01:02:09.821Z,99.99
2018-12-02T01:03:09.924Z,99.99
2018-12-02T01:04:30.859Z,99.99
2018-12-02T01:05:09.898Z,99.99
2018-12-02T01:06:30.899Z,99.99
2018-12-02T01:07:09.890Z,99.99
2018-12-02T01:08:09.923Z,99.99
2018-12-02T01:09:30.965Z,99.99
2018-12-02T01:10:09.959Z,99.99
2018-12-02T01:11:31.023Z,99.99
2018-12-02T01:12:09.972Z,99.99
2018-12-02T01:13:10.063Z,99.99
2018-12-02T01:14:31.052Z,99.99
2018-12-02T01:15:10.064Z,99.99
2018-12-02T01:16:31.086Z,99.99
2018-12-02T01:17:10.087Z,99.99
2018-12-02T01:18:10.142Z,99.99
2018-12-02T01:19:31.180Z,99.99
2018-12-02T01:20:10.146Z,99.99
2018-12-02T01:21:31.210Z,99.99
2018-12-02T01:22:10.189Z,99.99
2018-12-02T01:23:10.292Z,99.99
2018-12-02T01:24:31.227Z,99.99
2018-12-02T01:25:10.225Z,99.99
2018-12-02T01:26:31.269Z,99.99
2018-12-02T01:27:10.259Z,99.99
2018-12-02T01:28:10.310Z,99.99
2018-12-02T01:29:31.325Z,99.99
2018-12-02T01:30:10.329Z,99.99
2018-12-02T01:31:31.380Z,99.99
2018-12-02T01:32:10.395Z,99.99
2018-12-02T01:33:10.465Z,99.99
2018-12-02T01:34:31.423Z,99.99
2018-12-02T01:35:10.437Z,99.99
2018-12-02T01:36:31.449Z,99.99
2018-12-02T01:37:10.467Z,99.99
2018-12-02T01:38:10.473Z,99.99
2018-12-02T01:39:31.540Z,99.99
2018-12-02T01:40:10.503Z,99.99
2018-12-02T01:41:31.577Z,99.99
2018-12-02T01:42:10.567Z,99.99
2018-12-02T01:43:10.576Z,99.99
2018-12-02T01:44:31.602Z,99.99
2018-12-02T01:45:10.638Z,99.99
2018-12-02T01:46:31.639Z,99.99
2018-12-02T01:47:10.646Z,99.99
2018-12-02T01:48:10.663Z,99.99
2018-12-02T01:49:31.712Z,99.99
2018-12-02T01:50:10.725Z,99.99
2018-12-02T01:51:31.776Z,99.99
2018-12-02T01:52:10.762Z,99.99
2018-12-02T01:53:10.782Z,99.99
2018-12-02T01:54:35.449Z,99.99
2018-12-02T01:55:10.845Z,99.99
2018-12-02T01:56:32.575Z,99.99
2018-12-02T01:57:10.876Z,99.99
2018-12-02T01:58:10.860Z,99.99
2018-12-02T01:59:33.018Z,99.99
2018-12-02T02:00:10.919Z,99.99
2018-12-02T02:01:32.061Z,99.99
2018-12-02T02:02:11.138Z,99.99
2018-12-02T02:03:11.275Z,99.99
2018-12-02T02:04:32.306Z,99.99
2018-12-02T02:05:11.167Z,99.99
2018-12-02T02:06:32.319Z,99.99
2018-12-02T02:07:11.291Z,99.99
2018-12-02T02:08:11.253Z,99.99
2018-12-02T02:09:33.040Z,99.99
2018-12-02T02:10:11.118Z,99.99
2018-12-02T02:11:32.514Z,99.99
2018-12-02T02:12:11.320Z,99.99
2018-12-02T02:13:11.565Z,99.99
2018-12-02T02:14:32.286Z,99.99
2018-12-02T02:15:11.315Z,99.99
2018-12-02T02:16:32.555Z,99.99
2018-12-02T02:17:11.524Z,99.99
2018-12-02T02:18:11.754Z,99.99
2018-12-02T02:19:32.453Z,99.99
2018-12-02T02:20:11.518Z,99.99
2018-12-02T02:21:32.488Z,99.99
2018-12-02T02:22:11.648Z,99.99
2018-12-02T02:23:11.404Z,99.99
2018-12-02T02:24:32.425Z,99.99
2018-12-02T02:25:11.658Z,99.99
2018-12-02T02:26:32.687Z,99.99
2018-12-02T02:27:11.551Z,99.99
2018-12-02T02:34:20.185Z,99.99
2018-12-02T02:34:51.421Z,99.99
2018-12-02T02:36:12.579Z,99.99
2018-12-02T02:36:51.433Z,99.99
2018-12-02T02:37:51.459Z,99.99
2018-12-02T02:39:12.642Z,99.99
2018-12-02T02:39:51.573Z,99.99
2018-12-02T02:41:12.526Z,99.99
2018-12-02T02:41:51.628Z,99.99
2018-12-02T02:42:51.584Z,99.99
2018-12-02T02:44:12.687Z,99.99
2018-12-02T02:44:51.482Z,99.99
2018-12-02T02:46:12.538Z,99.99
2018-12-02T02:46:51.516Z,99.99
2018-12-02T02:47:51.536Z,99.99
2018-12-02T02:49:12.579Z,99.99
2018-12-02T02:49:51.555Z,99.99
2018-12-02T02:51:13.266Z,99.99
2018-12-02T02:51:51.614Z,99.99
2018-12-02T02:52:51.689Z,99.99
2018-12-02T02:54:12.678Z,99.99
2018-12-02T02:54:51.686Z,99.99
2018-12-02T02:56:12.703Z,99.99
2018-12-02T02:56:51.703Z,99.99
2018-12-02T02:57:51.707Z,99.99
2018-12-02T02:59:12.908Z,99.99
2018-12-02T02:59:51.751Z,99.99
2018-12-02T03:01:12.793Z,99.82
2018-12-02T03:01:51.792Z,99.39
2018-12-02T03:02:51.805Z,99.99
2018-12-02T03:04:12.829Z,99.87
2018-12-02T03:04:51.851Z,99.99
2018-12-02T03:06:12.892Z,99.99
2018-12-02T03:06:51.891Z,99.99
2018-12-02T03:07:51.900Z,99.99
2018-12-02T03:09:12.941Z,99.99
2018-12-02T03:09:51.956Z,99.99
2018-12-02T03:11:12.983Z,99.91
2018-12-02T03:11:51.971Z,99.99
2018-12-02T03:12:52.010Z,99.99
2018-12-02T03:14:13.037Z,99.96
2018-12-02T03:14:52.034Z,99.99
2018-12-02T03:16:13.060Z,99.99
2018-12-02T03:16:52.084Z,99.99
2018-12-02T03:17:52.095Z,99.99
2018-12-02T03:19:13.134Z,99.99
2018-12-02T03:19:52.130Z,99.99
2018-12-02T03:21:13.142Z,99.99
2018-12-02T03:21:52.172Z,99.99
2018-12-02T03:22:52.198Z,99.99
2018-12-02T03:24:13.227Z,99.99
2018-12-02T03:24:52.226Z,99.99
2018-12-02T03:26:13.266Z,99.99
2018-12-02T03:26:52.250Z,99.99
2018-12-02T03:27:52.285Z,99.99
2018-12-02T03:29:13.330Z,99.99
2018-12-02T03:29:52.303Z,99.99
2018-12-02T03:31:13.382Z,99.99
2018-12-02T03:31:52.343Z,99.99
2018-12-02T03:32:52.425Z,99.99
2018-12-02T03:34:13.393Z,99.99
2018-12-02T03:34:52.413Z,99.99
2018-12-02T03:36:13.440Z,99.99
2018-12-02T03:36:52.486Z,99.99
2018-12-02T03:37:52.473Z,99.99
2018-12-02T03:39:13.541Z,99.99
2018-12-02T03:39:52.509Z,99.99
2018-12-02T03:41:13.569Z,99.99
2018-12-02T03:41:52.549Z,99.99
2018-12-02T03:42:52.573Z,99.99
2018-12-02T03:44:13.613Z,99.99
2018-12-02T03:44:52.616Z,99.99
2018-12-02T03:46:13.637Z,99.99
2018-12-02T03:46:52.645Z,99.99
2018-12-02T03:47:52.681Z,99.99
2018-12-02T03:49:13.692Z,99.99
2018-12-02T03:49:52.724Z,99.99
2018-12-02T03:51:13.723Z,99.99
2018-12-02T03:51:52.739Z,99.99
2018-12-02T03:52:52.769Z,99.99
2018-12-02T03:54:13.784Z,99.99
2018-12-02T03:54:52.808Z,99.99
2018-12-02T03:56:13.844Z,99.99
2018-12-02T03:56:52.835Z,99.99
2018-12-02T03:57:52.849Z,99.99
2018-12-02T03:59:13.888Z,99.99
2018-12-02T03:59:52.882Z,99.99
2018-12-02T04:01:13.918Z,99.99
2018-12-02T04:01:52.920Z,99.99
2018-12-02T04:02:52.944Z,99.99
2018-12-02T04:04:13.986Z,99.99
2018-12-02T04:04:52.985Z,99.99
2018-12-02T04:06:14.033Z,99.99
2018-12-02T04:06:53.026Z,99.99
2018-12-02T04:07:53.047Z,99.99
2018-12-02T04:09:14.076Z,99.99
2018-12-02T04:09:53.067Z,99.99
2018-12-02T04:11:14.114Z,99.99
2018-12-02T04:11:53.108Z,99.99
2018-12-02T04:12:53.137Z,99.99
2018-12-02T04:14:14.167Z,99.99
2018-12-02T04:14:53.160Z,99.99
2018-12-02T04:16:14.220Z,99.99
2018-12-02T04:16:53.201Z,99.99
2018-12-02T04:17:53.231Z,99.99
2018-12-02T04:19:14.255Z,99.99
2018-12-02T04:19:53.268Z,99.99
2018-12-02T04:21:14.311Z,99.99
2018-12-02T04:21:53.306Z,99.99
2018-12-02T04:22:53.318Z,99.99
2018-12-02T04:24:14.351Z,99.99
2018-12-02T04:24:53.351Z,99.99
2018-12-02T04:26:14.410Z,99.99
2018-12-02T04:26:53.397Z,99.99
2018-12-02T04:27:53.418Z,99.99
2018-12-02T04:29:14.462Z,99.99
2018-12-02T04:29:53.457Z,99.99
2018-12-02T04:31:14.502Z,99.99
2018-12-02T04:31:53.514Z,99.99
2018-12-02T04:32:53.532Z,99.99
2018-12-02T04:34:14.546Z,99.99
2018-12-02T04:34:53.539Z,99.99
2018-12-02T04:36:14.607Z,99.99
2018-12-02T04:36:53.595Z,99.99
2018-12-02T04:37:53.603Z,99.99
2018-12-02T04:39:14.629Z,99.99
2018-12-02T04:39:53.654Z,99.63
2018-12-02T04:41:14.699Z,99.99
2018-12-02T04:41:53.682Z,99.73
2018-12-02T04:42:53.703Z,99.82
2018-12-02T04:44:14.754Z,99.16
2018-12-02T04:44:53.732Z,98.78
2018-12-02T04:46:14.810Z,99.06
2018-12-02T04:46:53.773Z,99.54
2018-12-02T04:47:53.794Z,99.35
2018-12-02T04:49:14.837Z,99.26
2018-12-02T04:49:53.829Z,99.35
2018-12-02T04:51:14.866Z,99.16
2018-12-02T04:51:53.889Z,99.54
2018-12-02T04:52:53.896Z,99.06
2018-12-02T04:54:14.942Z,98.87
2018-12-02T04:54:53.936Z,99.26
2018-12-02T04:56:14.975Z,99.26
2018-12-02T04:56:53.943Z,99.16
2018-12-02T04:57:53.977Z,99.06
2018-12-02T04:59:15.039Z,98.97
2018-12-02T04:59:54.040Z,98.78
2018-12-02T05:01:15.088Z,98.59
2018-12-02T05:01:54.071Z,98.78
2018-12-02T05:02:54.111Z,99.16
2018-12-02T05:04:15.121Z,98.59
2018-12-02T05:04:54.115Z,98.59
2018-12-02T05:06:15.166Z,99.35
2018-12-02T05:06:54.159Z,98.59
2018-12-02T05:07:54.192Z,98.97
2018-12-02T05:09:15.223Z,98.87
2018-12-02T05:09:54.228Z,98.40
2018-12-02T05:11:15.251Z,98.40
2018-12-02T05:11:54.249Z,98.21
2018-12-02T05:12:54.262Z,98.49
2018-12-02T05:14:15.306Z,98.87
2018-12-02T05:14:54.325Z,98.68
2018-12-02T05:16:15.346Z,98.68
2018-12-02T05:16:54.350Z,98.59
2018-12-02T05:17:54.340Z,98.59
2018-12-02T05:19:15.414Z,98.68
2018-12-02T05:19:54.408Z,98.21
2018-12-02T05:21:15.457Z,98.49
2018-12-02T05:21:54.460Z,98.59
2018-12-02T05:22:54.485Z,98.30
2018-12-02T05:24:15.507Z,98.49
2018-12-02T05:24:54.505Z,98.11
2018-12-02T05:26:15.553Z,97.74
2018-12-02T05:26:54.546Z,98.40
2018-12-02T05:27:54.561Z,98.11
2018-12-02T05:29:15.604Z,98.30
2018-12-02T05:29:54.620Z,98.30
2018-12-02T05:31:15.644Z,98.49
2018-12-02T05:31:54.665Z,98.11
2018-12-02T05:32:54.643Z,98.11
2018-12-02T05:34:15.694Z,97.74
2018-12-02T05:34:54.695Z,98.02
2018-12-02T05:36:15.750Z,97.74
2018-12-02T05:36:54.743Z,97.45
2018-12-02T05:37:54.773Z,97.36
2018-12-02T05:39:15.789Z,97.45
2018-12-02T05:39:54.795Z,97.55
2018-12-02T05:41:15.817Z,97.26
2018-12-02T05:41:54.858Z,97.45
2018-12-02T05:42:54.852Z,97.64
2018-12-02T05:44:15.880Z,97.55
2018-12-02T05:44:54.904Z,97.45
2018-12-02T05:46:15.910Z,97.17
2018-12-02T05:46:54.961Z,97.74
2018-12-02T05:47:54.947Z,97.74
2018-12-02T05:49:15.992Z,97.74
2018-12-02T05:49:54.979Z,97.26
2018-12-02T05:51:16.021Z,97.55
2018-12-02T05:51:55.034Z,97.55
2018-12-02T05:52:55.041Z,97.92
2018-12-02T05:54:16.088Z,97.55
2018-12-02T05:54:55.084Z,97.26
2018-12-02T05:56:16.123Z,97.45
2018-12-02T05:56:55.146Z,97.26
2018-12-02T05:57:55.137Z,97.36
2018-12-02T05:59:16.203Z,96.78
2018-12-02T05:59:55.181Z,96.97
2018-12-02T06:01:16.197Z,97.45
2018-12-02T06:01:55.251Z,96.41
2018-12-02T06:02:55.241Z,97.26
2018-12-02T06:04:16.281Z,97.17
2018-12-02T06:04:55.298Z,96.78
2018-12-02T06:06:16.317Z,97.36
2018-12-02T06:06:55.315Z,97.64
2018-12-02T06:07:55.361Z,96.88
2018-12-02T06:09:16.376Z,97.45
2018-12-02T06:09:55.366Z,96.41
2018-12-02T06:11:16.395Z,97.55
2018-12-02T06:11:55.417Z,97.55
2018-12-02T06:12:55.439Z,97.26
2018-12-02T06:14:16.464Z,96.78
2018-12-02T06:14:55.463Z,97.07
2018-12-02T06:16:16.494Z,96.88
2018-12-02T06:16:55.500Z,96.41
2018-12-02T06:17:55.519Z,96.97
2018-12-02T06:19:16.564Z,96.69
2018-12-02T06:19:55.555Z,96.41
2018-12-02T06:21:16.618Z,96.59
2018-12-02T06:21:55.606Z,96.41
2018-12-02T06:22:55.658Z,96.45
2018-12-02T06:24:16.645Z,96.41
2018-12-02T06:24:55.657Z,96.08
2018-12-02T06:26:16.680Z,96.08
2018-12-02T06:26:55.706Z,96.26
2018-12-02T06:27:55.726Z,96.22
2018-12-02T06:29:16.771Z,95.93
2018-12-02T06:29:55.743Z,96.03
2018-12-02T06:31:16.789Z,96.36
2018-12-02T06:31:55.800Z,95.22
2018-12-02T06:32:55.813Z,96.26
2018-12-02T06:34:16.845Z,96.26
2018-12-02T06:34:55.880Z,96.17
2018-12-02T06:36:16.910Z,96.08
2018-12-02T06:36:55.913Z,96.08
2018-12-02T06:37:55.901Z,96.26
2018-12-02T06:39:17.902Z,96.26
2018-12-02T06:39:55.975Z,95.79
2018-12-02T06:41:17.013Z,95.31
2018-12-02T06:41:55.982Z,95.60
2018-12-02T06:42:56.038Z,95.22
2018-12-02T06:44:17.060Z,95.51
2018-12-02T06:44:56.074Z,95.12
2018-12-02T06:46:17.071Z,95.51
2018-12-02T06:46:56.062Z,95.31
2018-12-02T06:47:56.122Z,95.12
2018-12-02T06:49:17.150Z,95.12
2018-12-02T06:49:56.135Z,95.22
2018-12-02T06:51:17.174Z,94.65
2018-12-02T06:51:56.178Z,94.93
2018-12-02T06:52:56.184Z,94.65
2018-12-02T06:54:17.238Z,95.22
2018-12-02T06:54:56.212Z,95.03
2018-12-02T06:56:17.265Z,94.93
2018-12-02T06:56:56.283Z,95.31
2018-12-02T06:57:56.390Z,95.41
2018-12-02T06:59:17.330Z,94.93
2018-12-02T06:59:56.341Z,95.12
2018-12-02T07:01:17.371Z,95.12
2018-12-02T07:01:56.372Z,95.22
2018-12-02T07:02:56.406Z,94.65
2018-12-02T07:04:17.455Z,95.12
2018-12-02T07:04:56.451Z,95.12
2018-12-02T07:06:17.466Z,95.22
2018-12-02T07:06:56.464Z,95.17
2018-12-02T07:07:56.477Z,95.12
2018-12-02T07:09:18.772Z,95.03
2018-12-02T07:09:56.542Z,95.03
2018-12-02T07:11:17.569Z,95.12
2018-12-02T07:11:56.572Z,95.12
2018-12-02T07:12:57.072Z,94.93
2018-12-02T07:14:17.610Z,94.84
2018-12-02T07:14:56.661Z,95.12
2018-12-02T07:16:17.675Z,95.31
2018-12-02T07:16:56.689Z,95.12
2018-12-02T07:17:56.673Z,94.93
2018-12-02T07:19:17.721Z,95.03
2018-12-02T07:19:56.735Z,94.56
2018-12-02T07:21:17.742Z,94.56
2018-12-02T07:21:56.757Z,94.84
2018-12-02T07:22:56.773Z,94.93
2018-12-02T07:24:17.813Z,94.74
2018-12-02T07:24:56.815Z,94.65
2018-12-02T07:26:17.859Z,94.74
2018-12-02T07:26:56.849Z,94.93
2018-12-02T07:27:56.865Z,94.65
2018-12-02T07:29:17.984Z,94.27
2018-12-02T07:29:56.925Z,94.56
2018-12-02T07:31:17.972Z,94.46
2018-12-02T07:31:56.942Z,95.12
2018-12-02T07:32:56.971Z,94.93
2018-12-02T07:34:18.031Z,94.46
2018-12-02T07:34:57.067Z,94.08
2018-12-02T07:36:18.051Z,95.03
2018-12-02T07:36:57.067Z,94.46
2018-12-02T07:37:57.053Z,94.18
2018-12-02T07:39:18.132Z,93.80
2018-12-02T07:39:57.118Z,94.46
2018-12-02T07:41:18.140Z,94.08
2018-12-02T07:41:57.134Z,94.18
2018-12-02T07:42:57.171Z,94.56
2018-12-02T07:44:18.209Z,94.27
2018-12-02T07:44:57.219Z,94.46
2018-12-02T07:46:18.232Z,94.27
2018-12-02T07:46:57.232Z,93.89
2018-12-02T07:47:57.275Z,94.18
2018-12-02T07:49:18.293Z,94.27
2018-12-02T07:49:57.304Z,94.56
2018-12-02T07:51:18.327Z,94.18
2018-12-02T07:51:57.352Z,94.27
2018-12-02T07:52:57.374Z,93.89
2018-12-02T07:54:18.386Z,93.80
2018-12-02T07:54:57.400Z,94.08
2018-12-02T07:56:18.457Z,93.89
2018-12-02T07:56:57.440Z,93.51
2018-12-02T07:57:57.561Z,93.60
2018-12-02T07:59:18.485Z,93.41
2018-12-02T07:59:57.512Z,93.23
2018-12-02T08:01:18.524Z,93.51
2018-12-02T08:01:57.530Z,93.51
2018-12-02T08:02:57.557Z,93.41
2018-12-02T08:04:18.576Z,93.04
2018-12-02T08:04:57.581Z,93.04
2018-12-02T08:06:18.626Z,93.04
2018-12-02T08:06:57.642Z,93.04
2018-12-02T08:07:57.694Z,93.60
2018-12-02T08:09:18.672Z,93.41
2018-12-02T08:09:57.687Z,93.70
2018-12-02T08:11:18.737Z,93.32
2018-12-02T08:11:57.756Z,93.23
2018-12-02T08:12:57.759Z,93.13
2018-12-02T08:14:18.792Z,93.70
2018-12-02T08:14:57.802Z,93.23
2018-12-02T08:16:18.833Z,92.94
2018-12-02T08:16:57.840Z,92.94
2018-12-02T08:17:57.846Z,93.13
2018-12-02T08:19:18.891Z,92.85
2018-12-02T08:19:57.887Z,93.13
2018-12-02T08:21:18.975Z,93.13
2018-12-02T08:21:57.954Z,92.94
2018-12-02T08:22:57.950Z,93.04
2018-12-02T08:24:18.989Z,93.13
2018-12-02T08:24:58.001Z,92.56
2018-12-02T08:26:19.045Z,92.94
2018-12-02T08:26:58.028Z,93.23
2018-12-02T08:27:58.024Z,92.94
2018-12-02T08:29:19.069Z,92.94
2018-12-02T08:29:58.086Z,92.94
2018-12-02T08:31:19.102Z,92.66
2018-12-02T08:31:58.116Z,92.66
2018-12-02T08:32:58.147Z,92.56
2018-12-02T08:34:19.174Z,92.85
2018-12-02T08:34:58.196Z,92.66
2018-12-02T08:36:19.255Z,93.13
2018-12-02T08:36:58.232Z,92.28
2018-12-02T08:37:58.250Z,92.85
2018-12-02T08:39:19.260Z,92.47
2018-12-02T08:39:58.270Z,92.94
2018-12-02T08:41:19.298Z,92.94
2018-12-02T08:41:58.328Z,93.32
2018-12-02T08:42:58.351Z,93.41
2018-12-02T08:44:19.371Z,93.51
2018-12-02T08:44:58.349Z,92.75
2018-12-02T08:46:19.415Z,93.04
2018-12-02T08:46:58.407Z,93.13
2018-12-02T08:47:58.454Z,92.66
2018-12-02T08:49:19.467Z,92.37
2018-12-02T08:49:58.495Z,93.04
2018-12-02T08:51:19.508Z,92.56
2018-12-02T08:51:58.523Z,93.04
2018-12-02T08:52:58.531Z,92.66
2018-12-02T08:54:19.590Z,93.04
2018-12-02T08:54:58.572Z,92.56
2018-12-02T08:56:19.629Z,92.66
2018-12-02T08:56:58.605Z,92.90
2018-12-02T08:57:58.628Z,92.09
2018-12-02T08:59:19.668Z,93.04
2018-12-02T08:59:58.682Z,92.23
2018-12-02T09:01:19.706Z,91.89
2018-12-02T09:01:58.703Z,91.80
2018-12-02T09:02:58.726Z,92.80
2018-12-02T09:04:19.807Z,91.99
2018-12-02T09:04:58.751Z,92.75
2018-12-02T09:06:19.823Z,92.75
2018-12-02T09:06:58.811Z,91.99
2018-12-02T09:07:58.851Z,92.42
2018-12-02T09:09:19.869Z,91.94
2018-12-02T09:09:59.663Z,91.71
2018-12-02T09:11:19.894Z,92.28
2018-12-02T09:11:58.899Z,92.37
2018-12-02T09:12:58.930Z,91.99
2018-12-02T09:14:19.964Z,91.89
2018-12-02T09:14:59.378Z,91.75
2018-12-02T09:16:19.996Z,92.13
2018-12-02T09:16:59.017Z,92.18
2018-12-02T09:17:59.092Z,91.85
2018-12-02T09:19:20.041Z,92.04
2018-12-02T09:19:59.056Z,92.23
2018-12-02T09:21:20.098Z,91.85
2018-12-02T09:21:59.099Z,91.99
2018-12-02T09:22:59.096Z,92.13
2018-12-02T09:24:20.155Z,92.13
2018-12-02T09:24:59.165Z,92.32
2018-12-02T09:26:20.439Z,91.85
2018-12-02T09:26:59.221Z,92.51
2018-12-02T09:27:59.225Z,92.80
2018-12-02T09:29:20.270Z,91.94
2018-12-02T09:29:59.367Z,91.85
2018-12-02T09:31:20.286Z,92.23
2018-12-02T09:31:59.505Z,92.23
2018-12-02T09:32:59.744Z,91.85
2018-12-02T09:34:20.354Z,92.71
2018-12-02T09:34:59.483Z,92.71
2018-12-02T09:36:20.400Z,92.04
2018-12-02T09:36:59.385Z,92.51
2018-12-02T09:37:59.433Z,91.94
2018-12-02T09:39:20.447Z,92.04
2018-12-02T09:39:59.497Z,92.32
2018-12-02T09:41:20.590Z,92.42
2018-12-02T09:41:59.498Z,92.13
2018-12-02T09:42:59.502Z,92.80
2018-12-02T09:44:20.559Z,92.04
2018-12-02T09:44:59.575Z,92.71
2018-12-02T09:46:20.603Z,92.04
2018-12-02T09:46:59.591Z,92.04
2018-12-02T09:47:59.619Z,92.13
2018-12-02T09:49:20.651Z,93.08
2018-12-02T09:49:59.687Z,92.42
2018-12-02T09:51:20.713Z,92.80
2018-12-02T09:51:59.715Z,92.04
2018-12-02T09:52:59.738Z,92.42
2018-12-02T09:54:23.314Z,92.61
2018-12-02T09:54:59.779Z,92.80
2018-12-02T09:56:20.855Z,92.13
2018-12-02T09:56:59.815Z,92.61
2018-12-02T09:57:59.848Z,92.80
2018-12-02T09:59:20.834Z,92.90
2018-12-02T09:59:59.858Z,92.51
2018-12-02T10:01:20.911Z,92.42
2018-12-02T10:01:59.892Z,92.61
2018-12-02T10:02:59.912Z,92.71
2018-12-02T10:04:21.788Z,91.94
2018-12-02T10:04:59.949Z,92.04
2018-12-02T10:06:20.995Z,92.71
2018-12-02T10:06:59.986Z,92.61
2018-12-02T10:08:00.044Z,92.32
2018-12-02T10:09:21.084Z,92.85
2018-12-02T10:10:00.047Z,92.08
2018-12-02T10:11:21.117Z,92.80
2018-12-02T10:12:00.108Z,92.08
2018-12-02T10:13:00.109Z,92.61
2018-12-02T10:14:21.154Z,92.90
2018-12-02T10:15:00.151Z,93.04
2018-12-02T10:16:21.174Z,92.66
2018-12-02T10:17:00.213Z,92.66
2018-12-02T10:18:00.248Z,92.94
2018-12-02T10:19:21.248Z,92.66
2018-12-02T10:20:00.269Z,92.66
2018-12-02T10:21:21.272Z,92.94
2018-12-02T10:22:00.286Z,92.75
2018-12-02T10:23:00.306Z,92.75
2018-12-02T10:24:21.343Z,92.66
2018-12-02T10:25:00.360Z,93.04
2018-12-02T10:26:21.376Z,93.60
2018-12-02T10:27:00.413Z,92.66
2018-12-02T10:28:00.444Z,92.56
2018-12-02T10:29:21.444Z,92.94
2018-12-02T10:30:00.460Z,93.13
2018-12-02T10:31:21.488Z,93.23
2018-12-02T10:32:00.497Z,92.66
2018-12-02T10:33:00.582Z,92.46
2018-12-02T10:34:21.563Z,92.08
2018-12-02T10:35:00.585Z,92.75
2018-12-02T10:36:21.618Z,92.18
2018-12-02T10:37:00.598Z,92.37
2018-12-02T10:38:00.606Z,93.04
2018-12-02T10:39:21.670Z,91.99
2018-12-02T10:40:00.646Z,91.99
2018-12-02T10:41:21.673Z,92.37
2018-12-02T10:42:00.699Z,92.08
2018-12-02T10:43:00.730Z,92.08
2018-12-02T10:44:21.789Z,91.99
2018-12-02T10:45:00.760Z,92.08
2018-12-02T10:46:21.810Z,92.61
2018-12-02T10:47:00.797Z,93.04
2018-12-02T10:48:00.862Z,92.85
2018-12-02T10:49:21.874Z,92.13
2018-12-02T10:50:00.893Z,92.41
2018-12-02T10:51:21.907Z,92.61
2018-12-02T10:52:00.914Z,91.94
2018-12-02T10:53:00.972Z,92.70
2018-12-02T10:54:22.034Z,92.70
2018-12-02T10:55:01.192Z,92.51
2018-12-02T10:56:22.016Z,92.03
2018-12-02T10:57:01.061Z,91.47
2018-12-02T10:58:01.043Z,91.47
2018-12-02T10:59:22.070Z,91.28
2018-12-02T11:00:01.099Z,92.41
2018-12-02T11:01:22.120Z,91.94
2018-12-02T11:02:01.127Z,92.03
2018-12-02T11:03:01.193Z,92.41
2018-12-02T11:04:22.207Z,92.99
2018-12-02T11:05:01.364Z,91.94
2018-12-02T11:06:22.240Z,92.41
2018-12-02T11:07:01.225Z,92.22
2018-12-02T11:08:01.261Z,92.13
2018-12-02T11:09:22.266Z,92.41
2018-12-02T11:10:01.295Z,92.99
2018-12-02T11:11:22.313Z,92.13
2018-12-02T11:12:01.311Z,92.22
2018-12-02T11:13:01.344Z,92.03
2018-12-02T11:14:22.453Z,91.75
2018-12-02T11:15:01.411Z,91.85
2018-12-02T11:16:22.408Z,91.94
2018-12-02T11:17:01.457Z,91.28
2018-12-02T11:18:01.464Z,91.18
2018-12-02T11:19:22.476Z,91.75
2018-12-02T11:20:01.500Z,91.75
2018-12-02T11:21:22.546Z,92.80
2018-12-02T11:22:01.671Z,92.13
2018-12-02T11:23:01.646Z,91.94
2018-12-02T11:24:23.273Z,92.22
2018-12-02T11:25:01.621Z,92.61
2018-12-02T11:26:23.278Z,92.70
2018-12-02T11:27:01.719Z,93.94
2018-12-02T11:28:03.980Z,92.99
2018-12-02T11:29:22.778Z,92.61
2018-12-02T11:30:01.707Z,92.51
2018-12-02T11:31:22.864Z,92.89
2018-12-02T11:32:01.875Z,92.41
2018-12-02T11:33:01.758Z,93.55
2018-12-02T11:34:22.850Z,92.89
2018-12-02T11:35:01.809Z,93.94
2018-12-02T11:36:22.921Z,94.13
2018-12-02T11:37:01.855Z,94.60
2018-12-02T11:38:01.872Z,93.18
2018-12-02T11:39:23.139Z,92.80
2018-12-02T11:40:01.888Z,92.41
2018-12-02T11:41:23.039Z,93.08
2018-12-02T11:42:02.240Z,93.08
2018-12-02T11:43:01.964Z,92.32
2018-12-02T11:44:23.010Z,93.08
2018-12-02T11:45:02.056Z,93.94
2018-12-02T11:46:23.064Z,93.55
2018-12-02T11:47:02.030Z,92.80
2018-12-02T11:48:02.182Z,93.65
2018-12-02T11:49:23.105Z,93.18
2018-12-02T11:50:02.264Z,93.55
2018-12-02T11:51:23.175Z,93.55
2018-12-02T11:52:02.182Z,93.65
2018-12-02T11:53:02.234Z,93.75
2018-12-02T11:54:23.210Z,94.98
2018-12-02T11:55:02.216Z,93.27
2018-12-02T11:56:23.274Z,94.32
2018-12-02T11:57:02.303Z,94.03
2018-12-02T11:58:02.325Z,93.84
2018-12-02T11:59:23.317Z,94.03
2018-12-02T12:00:02.369Z,94.13
2018-12-02T12:01:23.366Z,94.13
2018-12-02T12:02:07.528Z,94.13
2018-12-02T12:03:02.393Z,94.32
2018-12-02T12:04:23.434Z,94.22
2018-12-02T12:05:02.455Z,94.13
2018-12-02T12:06:23.514Z,94.51
2018-12-02T12:07:02.495Z,93.65
2018-12-02T12:08:02.500Z,94.51
2018-12-02T12:09:23.547Z,94.03
2018-12-02T12:10:02.499Z,93.55
2018-12-02T12:11:23.583Z,94.13
2018-12-02T12:12:02.586Z,94.32
2018-12-02T12:13:02.616Z,94.03
2018-12-02T12:14:23.694Z,95.17
2018-12-02T12:15:02.627Z,95.17
2018-12-02T12:16:23.690Z,94.13
2018-12-02T12:17:02.663Z,93.75
2018-12-02T12:18:02.715Z,93.75
2018-12-02T12:19:23.795Z,93.94
2018-12-02T12:20:02.761Z,94.32
2018-12-02T12:21:23.755Z,94.42
2018-12-02T12:22:02.795Z,94.22
2018-12-02T12:23:02.787Z,94.03
2018-12-02T12:24:23.811Z,94.03
2018-12-02T12:25:02.858Z,94.60
2018-12-02T12:26:23.931Z,95.08
2018-12-02T12:27:02.902Z,95.46
2018-12-02T12:28:02.884Z,94.70
2018-12-02T12:29:23.917Z,94.13
2018-12-02T12:30:02.965Z,93.55
2018-12-02T12:31:23.976Z,94.03
2018-12-02T12:32:02.974Z,94.70
2018-12-02T12:33:03.039Z,94.42
2018-12-02T12:34:23.997Z,95.46
2018-12-02T12:35:03.038Z,94.70
2018-12-02T12:36:24.048Z,94.22
2018-12-02T12:37:03.132Z,93.84
2018-12-02T12:38:03.077Z,94.32
2018-12-02T12:39:24.114Z,95.08
2018-12-02T12:40:03.172Z,94.89
2018-12-02T12:41:24.127Z,94.51
2018-12-02T12:42:03.162Z,94.70
2018-12-02T12:43:03.178Z,94.98
2018-12-02T12:44:24.207Z,95.27
2018-12-02T12:45:03.229Z,95.27
2018-12-02T12:46:24.272Z,94.79
2018-12-02T12:47:03.263Z,94.89
2018-12-02T12:48:03.300Z,95.08
2018-12-02T12:49:24.324Z,94.98
2018-12-02T12:50:03.363Z,94.98
2018-12-02T12:51:24.395Z,94.60
2018-12-02T12:52:03.380Z,95.17
2018-12-02T12:53:03.394Z,94.98
2018-12-02T12:54:24.430Z,95.36
2018-12-02T12:55:03.448Z,95.27
2018-12-02T12:56:24.475Z,95.75
2018-12-02T12:57:03.527Z,95.65
2018-12-02T12:58:03.501Z,96.22